sensor_id;sensor_type;location;lat;lon;timestamp;P1;durP1;ratioP1;P2;durP2;ratioP2
17890;SDS011;9071;48.220;14.480;2023-11-19T00:03:50;24.37;;;14.33;;
17890;SDS011;9071;48.220;14.480;2023-11-19T00:08:53;19.90;;;14.27;;
17890;SDS011;9071;48.220;14.480;2023-11-19T00:13:57;21.23;;;14.17;;
17890;SDS011;9071;48.220;14.480;2023-11-19T00:18:59;19.50;;;14.20;;
17890;SDS011;9071;48.220;14.480;2023-11-19T00:24:01;19.70;;;14.37;;
17890;SDS011;9071;48.220;14.480;2023-11-19T00:29:05;22.03;;;14.53;;
17890;SDS011;9071;48.220;14.480;2023-11-19T00:34:07;23.70;;;14.80;;
17890;SDS011;9071;48.220;14.480;2023-11-19T00:39:10;23.63;;;15.90;;
17890;SDS011;9071;48.220;14.480;2023-11-19T00:44:16;23.63;;;15.30;;
17890;SDS011;9071;48.220;14.480;2023-11-19T00:49:19;23.03;;;15.47;;
17890;SDS011;9071;48.220;14.480;2023-11-19T00:54:22;23.50;;;15.00;;
17890;SDS011;9071;48.220;14.480;2023-11-19T00:59:27;23.77;;;16.30;;
17890;SDS011;9071;48.220;14.480;2023-11-19T01:04:29;24.50;;;15.27;;
17890;SDS011;9071;48.220;14.480;2023-11-19T01:09:35;24.23;;;16.67;;
17890;SDS011;9071;48.220;14.480;2023-11-19T01:14:38;27.90;;;16.53;;
17890;SDS011;9071;48.220;14.480;2023-11-19T01:19:40;28.13;;;17.00;;
17890;SDS011;9071;48.220;14.480;2023-11-19T01:24:42;29.03;;;18.37;;
17890;SDS011;9071;48.220;14.480;2023-11-19T01:29:45;28.40;;;17.87;;
17890;SDS011;9071;48.220;14.480;2023-11-19T01:34:48;27.23;;;16.77;;
17890;SDS011;9071;48.220;14.480;2023-11-19T01:39:50;31.67;;;18.80;;
17890;SDS011;9071;48.220;14.480;2023-11-19T01:44:58;27.77;;;17.47;;
17890;SDS011;9071;48.220;14.480;2023-11-19T01:50:01;30.00;;;18.47;;
17890;SDS011;9071;48.220;14.480;2023-11-19T01:55:06;30.73;;;19.77;;
17890;SDS011;9071;48.220;14.480;2023-11-19T02:00:12;31.50;;;19.90;;
17890;SDS011;9071;48.220;14.480;2023-11-19T02:05:16;36.47;;;21.60;;
17890;SDS011;9071;48.220;14.480;2023-11-19T02:10:18;33.07;;;19.77;;
17890;SDS011;9071;48.220;14.480;2023-11-19T02:15:22;33.50;;;19.27;;
17890;SDS011;9071;48.220;14.480;2023-11-19T02:20:24;31.67;;;17.77;;
17890;SDS011;9071;48.220;14.480;2023-11-19T02:25:28;33.73;;;19.73;;
17890;SDS011;9071;48.220;14.480;2023-11-19T02:30:35;34.63;;;18.87;;
17890;SDS011;9071;48.220;14.480;2023-11-19T02:35:38;29.20;;;17.10;;
17890;SDS011;9071;48.220;14.480;2023-11-19T02:40:41;32.60;;;16.17;;
17890;SDS011;9071;48.220;14.480;2023-11-19T02:45:44;28.00;;;15.00;;
17890;SDS011;9071;48.220;14.480;2023-11-19T02:50:47;26.33;;;14.80;;
17890;SDS011;9071;48.220;14.480;2023-11-19T02:55:49;23.17;;;14.23;;
17890;SDS011;9071;48.220;14.480;2023-11-19T03:00:53;26.00;;;14.67;;
17890;SDS011;9071;48.220;14.480;2023-11-19T03:05:57;21.70;;;13.47;;
17890;SDS011;9071;48.220;14.480;2023-11-19T03:10:59;23.03;;;13.57;;
17890;SDS011;9071;48.220;14.480;2023-11-19T03:16:03;26.20;;;15.13;;
17890;SDS011;9071;48.220;14.480;2023-11-19T03:21:05;21.77;;;12.90;;
17890;SDS011;9071;48.220;14.480;2023-11-19T03:26:08;22.23;;;13.23;;
17890;SDS011;9071;48.220;14.480;2023-11-19T03:31:13;23.53;;;13.47;;
17890;SDS011;9071;48.220;14.480;2023-11-19T03:36:15;23.13;;;12.60;;
17890;SDS011;9071;48.220;14.480;2023-11-19T03:41:17;21.27;;;12.00;;
17890;SDS011;9071;48.220;14.480;2023-11-19T03:46:22;20.00;;;13.60;;
17890;SDS011;9071;48.220;14.480;2023-11-19T03:51:24;23.07;;;12.47;;
17890;SDS011;9071;48.220;14.480;2023-11-19T03:56:26;21.10;;;12.50;;
17890;SDS011;9071;48.220;14.480;2023-11-19T04:01:30;19.10;;;11.33;;
17890;SDS011;9071;48.220;14.480;2023-11-19T04:06:32;21.63;;;13.33;;
17890;SDS011;9071;48.220;14.480;2023-11-19T04:11:35;19.90;;;11.77;;
17890;SDS011;9071;48.220;14.480;2023-11-19T04:16:39;20.10;;;12.27;;
17890;SDS011;9071;48.220;14.480;2023-11-19T04:21:41;18.23;;;11.37;;
17890;SDS011;9071;48.220;14.480;2023-11-19T04:26:43;21.93;;;12.40;;
17890;SDS011;9071;48.220;14.480;2023-11-19T04:31:48;20.23;;;12.47;;
17890;SDS011;9071;48.220;14.480;2023-11-19T04:36:50;22.70;;;13.70;;
17890;SDS011;9071;48.220;14.480;2023-11-19T04:41:52;24.50;;;12.17;;
17890;SDS011;9071;48.220;14.480;2023-11-19T04:46:55;20.80;;;12.43;;
17890;SDS011;9071;48.220;14.480;2023-11-19T04:51:58;18.63;;;11.33;;
17890;SDS011;9071;48.220;14.480;2023-11-19T04:57:00;20.33;;;12.27;;
17890;SDS011;9071;48.220;14.480;2023-11-19T05:02:04;21.43;;;12.17;;
17890;SDS011;9071;48.220;14.480;2023-11-19T05:07:06;19.70;;;11.03;;
17890;SDS011;9071;48.220;14.480;2023-11-19T05:12:08;21.23;;;11.07;;
17890;SDS011;9071;48.220;14.480;2023-11-19T05:17:13;16.63;;;9.67;;
17890;SDS011;9071;48.220;14.480;2023-11-19T05:22:15;17.97;;;10.47;;
17890;SDS011;9071;48.220;14.480;2023-11-19T05:27:18;20.20;;;10.10;;
17890;SDS011;9071;48.220;14.480;2023-11-19T05:32:25;17.80;;;10.60;;
17890;SDS011;9071;48.220;14.480;2023-11-19T05:37:27;18.87;;;10.77;;
17890;SDS011;9071;48.220;14.480;2023-11-19T05:42:29;16.43;;;10.00;;
17890;SDS011;9071;48.220;14.480;2023-11-19T05:47:32;16.77;;;9.80;;
17890;SDS011;9071;48.220;14.480;2023-11-19T05:52:35;16.80;;;10.30;;
17890;SDS011;9071;48.220;14.480;2023-11-19T05:57:37;17.07;;;10.03;;
17890;SDS011;9071;48.220;14.480;2023-11-19T06:02:41;15.23;;;9.70;;
17890;SDS011;9071;48.220;14.480;2023-11-19T06:07:43;16.30;;;10.20;;
17890;SDS011;9071;48.220;14.480;2023-11-19T06:12:46;15.13;;;9.27;;
17890;SDS011;9071;48.220;14.480;2023-11-19T06:17:50;14.30;;;8.93;;
17890;SDS011;9071;48.220;14.480;2023-11-19T06:22:52;13.70;;;8.77;;
17890;SDS011;9071;48.220;14.480;2023-11-19T06:27:54;13.27;;;8.57;;
17890;SDS011;9071;48.220;14.480;2023-11-19T06:32:58;13.03;;;8.43;;
17890;SDS011;9071;48.220;14.480;2023-11-19T06:38:00;15.07;;;9.50;;
17890;SDS011;9071;48.220;14.480;2023-11-19T06:43:03;15.53;;;9.97;;
17890;SDS011;9071;48.220;14.480;2023-11-19T06:48:10;15.83;;;10.00;;
17890;SDS011;9071;48.220;14.480;2023-11-19T06:53:12;13.93;;;8.97;;
17890;SDS011;9071;48.220;14.480;2023-11-19T06:58:14;15.83;;;10.17;;
17890;SDS011;9071;48.220;14.480;2023-11-19T07:03:19;18.23;;;10.27;;
17890;SDS011;9071;48.220;14.480;2023-11-19T07:08:21;17.50;;;10.93;;
17890;SDS011;9071;48.220;14.480;2023-11-19T07:13:23;17.70;;;11.03;;
17890;SDS011;9071;48.220;14.480;2023-11-19T07:18:29;16.23;;;9.70;;
17890;SDS011;9071;48.220;14.480;2023-11-19T07:23:31;15.63;;;10.17;;
17890;SDS011;9071;48.220;14.480;2023-11-19T07:28:34;17.77;;;9.77;;
17890;SDS011;9071;48.220;14.480;2023-11-19T07:33:37;17.00;;;10.97;;
17890;SDS011;9071;48.220;14.480;2023-11-19T07:38:42;17.10;;;10.77;;
17890;SDS011;9071;48.220;14.480;2023-11-19T07:43:45;20.47;;;12.73;;
17890;SDS011;9071;48.220;14.480;2023-11-19T07:48:49;22.73;;;12.27;;
17890;SDS011;9071;48.220;14.480;2023-11-19T07:53:51;21.30;;;12.07;;
17890;SDS011;9071;48.220;14.480;2023-11-19T07:58:53;21.47;;;12.83;;
17890;SDS011;9071;48.220;14.480;2023-11-19T08:03:56;21.80;;;14.50;;
17890;SDS011;9071;48.220;14.480;2023-11-19T08:08:59;16.50;;;10.83;;
17890;SDS011;9071;48.220;14.480;2023-11-19T08:14:01;17.60;;;11.63;;
17890;SDS011;9071;48.220;14.480;2023-11-19T08:19:05;20.63;;;13.73;;
17890;SDS011;9071;48.220;14.480;2023-11-19T08:24:07;19.63;;;11.77;;
17890;SDS011;9071;48.220;14.480;2023-11-19T08:29:09;36.70;;;22.87;;
17890;SDS011;9071;48.220;14.480;2023-11-19T08:34:12;20.67;;;12.67;;
17890;SDS011;9071;48.220;14.480;2023-11-19T08:39:15;16.20;;;10.00;;
17890;SDS011;9071;48.220;14.480;2023-11-19T08:44:18;11.57;;;8.87;;
17890;SDS011;9071;48.220;14.480;2023-11-19T08:49:21;24.87;;;13.27;;
17890;SDS011;9071;48.220;14.480;2023-11-19T08:54:24;21.37;;;13.43;;
17890;SDS011;9071;48.220;14.480;2023-11-19T08:59:26;13.73;;;9.93;;
17890;SDS011;9071;48.220;14.480;2023-11-19T09:04:29;12.73;;;8.23;;
17890;SDS011;9071;48.220;14.480;2023-11-19T09:09:31;10.50;;;7.03;;
17890;SDS011;9071;48.220;14.480;2023-11-19T09:14:35;13.70;;;7.80;;
17890;SDS011;9071;48.220;14.480;2023-11-19T09:19:39;9.40;;;7.00;;
17890;SDS011;9071;48.220;14.480;2023-11-19T09:24:41;14.63;;;8.93;;
17890;SDS011;9071;48.220;14.480;2023-11-19T09:29:44;9.83;;;7.53;;
17890;SDS011;9071;48.220;14.480;2023-11-19T09:34:50;10.87;;;8.23;;
17890;SDS011;9071;48.220;14.480;2023-11-19T09:39:52;10.47;;;7.63;;
17890;SDS011;9071;48.220;14.480;2023-11-19T09:44:54;7.83;;;5.83;;
17890;SDS011;9071;48.220;14.480;2023-11-19T09:50:00;9.30;;;6.53;;
17890;SDS011;9071;48.220;14.480;2023-11-19T09:55:02;9.30;;;6.33;;
17890;SDS011;9071;48.220;14.480;2023-11-19T10:00:05;8.13;;;6.10;;
17890;SDS011;9071;48.220;14.480;2023-11-19T10:05:11;8.23;;;6.40;;
17890;SDS011;9071;48.220;14.480;2023-11-19T10:10:15;6.60;;;5.33;;
17890;SDS011;9071;48.220;14.480;2023-11-19T10:15:20;7.43;;;5.37;;
17890;SDS011;9071;48.220;14.480;2023-11-19T10:20:25;6.83;;;5.17;;
17890;SDS011;9071;48.220;14.480;2023-11-19T10:25:28;6.50;;;5.10;;
17890;SDS011;9071;48.220;14.480;2023-11-19T10:30:30;8.37;;;5.20;;
17890;SDS011;9071;48.220;14.480;2023-11-19T10:35:36;5.50;;;4.33;;
17890;SDS011;9071;48.220;14.480;2023-11-19T10:40:52;6.20;;;4.80;;
17890;SDS011;9071;48.220;14.480;2023-11-19T10:45:56;6.83;;;5.63;;
17890;SDS011;9071;48.220;14.480;2023-11-19T10:51:12;15.60;;;11.13;;
17890;SDS011;9071;48.220;14.480;2023-11-19T10:56:21;7.30;;;5.90;;
17890;SDS011;9071;48.220;14.480;2023-11-19T11:01:27;7.63;;;5.63;;
17890;SDS011;9071;48.220;14.480;2023-11-19T11:06:37;8.57;;;6.50;;
17890;SDS011;9071;48.220;14.480;2023-11-19T11:11:40;8.70;;;6.73;;
17890;SDS011;9071;48.220;14.480;2023-11-19T11:16:44;13.63;;;8.90;;
17890;SDS011;9071;48.220;14.480;2023-11-19T11:21:52;13.10;;;9.83;;
17890;SDS011;9071;48.220;14.480;2023-11-19T11:27:20;13.67;;;10.17;;
17890;SDS011;9071;48.220;14.480;2023-11-19T11:32:48;14.10;;;10.10;;
17890;SDS011;9071;48.220;14.480;2023-11-19T11:38:03;15.43;;;10.33;;
17890;SDS011;9071;48.220;14.480;2023-11-19T11:48:43;14.47;;;10.10;;
17890;SDS011;9071;48.220;14.480;2023-11-19T11:53:49;16.43;;;11.37;;
17890;SDS011;9071;48.220;14.480;2023-11-19T11:58:54;18.27;;;11.73;;
17890;SDS011;9071;48.220;14.480;2023-11-19T12:03:56;17.83;;;11.37;;
17890;SDS011;9071;48.220;14.480;2023-11-19T12:09:00;17.77;;;10.90;;
17890;SDS011;9071;48.220;14.480;2023-11-19T12:14:03;17.20;;;10.30;;
17890;SDS011;9071;48.220;14.480;2023-11-19T12:19:06;14.93;;;8.87;;
17890;SDS011;9071;48.220;14.480;2023-11-19T12:24:11;15.30;;;10.13;;
17890;SDS011;9071;48.220;14.480;2023-11-19T12:29:14;17.67;;;10.93;;
17890;SDS011;9071;48.220;14.480;2023-11-19T12:34:16;18.77;;;11.87;;
17890;SDS011;9071;48.220;14.480;2023-11-19T12:39:20;20.50;;;12.37;;
17890;SDS011;9071;48.220;14.480;2023-11-19T12:44:22;20.00;;;12.23;;
17890;SDS011;9071;48.220;14.480;2023-11-19T12:49:24;19.47;;;11.77;;
17890;SDS011;9071;48.220;14.480;2023-11-19T12:54:34;17.00;;;11.17;;
17890;SDS011;9071;48.220;14.480;2023-11-19T12:59:37;18.67;;;11.93;;
17890;SDS011;9071;48.220;14.480;2023-11-19T13:04:39;19.40;;;12.20;;
17890;SDS011;9071;48.220;14.480;2023-11-19T13:09:42;19.30;;;11.47;;
17890;SDS011;9071;48.220;14.480;2023-11-19T13:14:44;17.07;;;11.97;;
17890;SDS011;9071;48.220;14.480;2023-11-19T13:19:47;18.07;;;11.40;;
17890;SDS011;9071;48.220;14.480;2023-11-19T13:24:52;17.77;;;12.33;;
17890;SDS011;9071;48.220;14.480;2023-11-19T13:29:54;24.30;;;13.87;;
17890;SDS011;9071;48.220;14.480;2023-11-19T13:34:56;21.03;;;12.17;;
17890;SDS011;9071;48.220;14.480;2023-11-19T13:40:00;14.67;;;10.10;;
17890;SDS011;9071;48.220;14.480;2023-11-19T13:45:03;16.33;;;9.97;;
17890;SDS011;9071;48.220;14.480;2023-11-19T13:50:08;15.63;;;8.60;;
17890;SDS011;9071;48.220;14.480;2023-11-19T13:55:13;17.33;;;11.03;;
17890;SDS011;9071;48.220;14.480;2023-11-19T14:00:16;12.80;;;8.60;;
17890;SDS011;9071;48.220;14.480;2023-11-19T14:05:19;13.83;;;8.40;;
17890;SDS011;9071;48.220;14.480;2023-11-19T14:10:22;13.47;;;8.50;;
17890;SDS011;9071;48.220;14.480;2023-11-19T14:15:25;16.97;;;8.87;;
17890;SDS011;9071;48.220;14.480;2023-11-19T14:20:27;17.57;;;9.97;;
17890;SDS011;9071;48.220;14.480;2023-11-19T14:25:30;13.60;;;9.60;;
17890;SDS011;9071;48.220;14.480;2023-11-19T14:30:32;18.10;;;10.93;;
17890;SDS011;9071;48.220;14.480;2023-11-19T14:35:35;17.67;;;10.47;;
17890;SDS011;9071;48.220;14.480;2023-11-19T14:40:38;17.17;;;11.00;;
17890;SDS011;9071;48.220;14.480;2023-11-19T14:45:42;18.97;;;12.57;;
17890;SDS011;9071;48.220;14.480;2023-11-19T14:50:45;19.07;;;12.23;;
17890;SDS011;9071;48.220;14.480;2023-11-19T14:55:49;19.43;;;12.03;;
17890;SDS011;9071;48.220;14.480;2023-11-19T15:00:51;19.37;;;11.93;;
17890;SDS011;9071;48.220;14.480;2023-11-19T15:05:53;18.07;;;11.63;;
17890;SDS011;9071;48.220;14.480;2023-11-19T15:10:57;23.37;;;13.70;;
17890;SDS011;9071;48.220;14.480;2023-11-19T15:16:00;26.53;;;17.03;;
17890;SDS011;9071;48.220;14.480;2023-11-19T15:21:02;33.13;;;18.97;;
17890;SDS011;9071;48.220;14.480;2023-11-19T15:26:05;30.53;;;18.00;;
17890;SDS011;9071;48.220;14.480;2023-11-19T15:31:10;37.50;;;20.13;;
17890;SDS011;9071;48.220;14.480;2023-11-19T15:36:13;47.87;;;21.47;;
17890;SDS011;9071;48.220;14.480;2023-11-19T15:41:16;80.10;;;21.23;;
17890;SDS011;9071;48.220;14.480;2023-11-19T15:46:18;136.77;;;26.23;;
17890;SDS011;9071;48.220;14.480;2023-11-19T15:51:20;127.53;;;22.77;;
17890;SDS011;9071;48.220;14.480;2023-11-19T15:56:24;250.97;;;27.70;;
17890;SDS011;9071;48.220;14.480;2023-11-19T16:01:26;108.50;;;22.53;;
17890;SDS011;9071;48.220;14.480;2023-11-19T16:06:30;251.10;;;31.30;;
17890;SDS011;9071;48.220;14.480;2023-11-19T16:11:34;211.67;;;30.67;;
17890;SDS011;9071;48.220;14.480;2023-11-19T16:16:36;206.40;;;34.50;;
17890;SDS011;9071;48.220;14.480;2023-11-19T16:21:38;126.50;;;31.60;;
17890;SDS011;9071;48.220;14.480;2023-11-19T16:26:42;238.23;;;36.60;;
17890;SDS011;9071;48.220;14.480;2023-11-19T16:31:44;223.13;;;33.67;;
17890;SDS011;9071;48.220;14.480;2023-11-19T16:36:48;130.03;;;30.60;;
17890;SDS011;9071;48.220;14.480;2023-11-19T16:41:52;91.60;;;36.83;;
17890;SDS011;9071;48.220;14.480;2023-11-19T16:46:54;84.13;;;38.50;;
17890;SDS011;9071;48.220;14.480;2023-11-19T16:51:56;77.60;;;33.80;;
17890;SDS011;9071;48.220;14.480;2023-11-19T16:56:59;66.03;;;31.17;;
17890;SDS011;9071;48.220;14.480;2023-11-19T17:02:01;78.37;;;35.83;;
17890;SDS011;9071;48.220;14.480;2023-11-19T17:07:04;355.73;;;88.93;;
17890;SDS011;9071;48.220;14.480;2023-11-19T17:12:07;171.67;;;58.17;;
17890;SDS011;9071;48.220;14.480;2023-11-19T17:17:10;85.80;;;33.97;;
17890;SDS011;9071;48.220;14.480;2023-11-19T17:22:12;161.73;;;39.20;;
17890;SDS011;9071;48.220;14.480;2023-11-19T17:27:16;93.53;;;35.73;;
17890;SDS011;9071;48.220;14.480;2023-11-19T17:32:18;151.50;;;39.40;;
17890;SDS011;9071;48.220;14.480;2023-11-19T17:37:20;278.00;;;43.77;;
17890;SDS011;9071;48.220;14.480;2023-11-19T17:42:23;102.60;;;37.57;;
17890;SDS011;9071;48.220;14.480;2023-11-19T17:47:25;99.87;;;36.37;;
17890;SDS011;9071;48.220;14.480;2023-11-19T17:52:28;130.47;;;47.73;;
17890;SDS011;9071;48.220;14.480;2023-11-19T17:57:33;128.83;;;46.93;;
17890;SDS011;9071;48.220;14.480;2023-11-19T18:02:35;268.33;;;52.37;;
17890;SDS011;9071;48.220;14.480;2023-11-19T18:07:37;204.57;;;45.10;;
17890;SDS011;9071;48.220;14.480;2023-11-19T18:12:42;120.90;;;40.03;;
17890;SDS011;9071;48.220;14.480;2023-11-19T18:17:45;80.73;;;31.47;;
17890;SDS011;9071;48.220;14.480;2023-11-19T18:22:47;73.97;;;30.83;;
17890;SDS011;9071;48.220;14.480;2023-11-19T18:27:51;76.17;;;32.23;;
17890;SDS011;9071;48.220;14.480;2023-11-19T18:32:53;78.93;;;35.17;;
17890;SDS011;9071;48.220;14.480;2023-11-19T18:37:55;74.53;;;31.87;;
17890;SDS011;9071;48.220;14.480;2023-11-19T18:42:59;76.50;;;32.90;;
17890;SDS011;9071;48.220;14.480;2023-11-19T18:48:01;79.30;;;33.03;;
17890;SDS011;9071;48.220;14.480;2023-11-19T18:53:03;112.87;;;40.87;;
17890;SDS011;9071;48.220;14.480;2023-11-19T18:58:07;106.07;;;39.67;;
17890;SDS011;9071;48.220;14.480;2023-11-19T19:03:09;87.97;;;39.33;;
17890;SDS011;9071;48.220;14.480;2023-11-19T19:08:13;103.60;;;43.73;;
17890;SDS011;9071;48.220;14.480;2023-11-19T19:13:18;88.57;;;39.43;;
17890;SDS011;9071;48.220;14.480;2023-11-19T19:18:20;97.63;;;43.17;;
17890;SDS011;9071;48.220;14.480;2023-11-19T19:23:24;102.83;;;42.73;;
17890;SDS011;9071;48.220;14.480;2023-11-19T19:28:27;84.23;;;38.10;;
17890;SDS011;9071;48.220;14.480;2023-11-19T19:33:31;91.17;;;43.67;;
17890;SDS011;9071;48.220;14.480;2023-11-19T19:38:33;85.93;;;39.77;;
17890;SDS011;9071;48.220;14.480;2023-11-19T19:43:36;86.67;;;39.93;;
17890;SDS011;9071;48.220;14.480;2023-11-19T19:48:39;79.70;;;35.80;;
17890;SDS011;9071;48.220;14.480;2023-11-19T19:53:41;76.80;;;35.03;;
17890;SDS011;9071;48.220;14.480;2023-11-19T19:58:46;76.67;;;34.67;;
17890;SDS011;9071;48.220;14.480;2023-11-19T20:03:48;73.23;;;35.40;;
17890;SDS011;9071;48.220;14.480;2023-11-19T20:08:50;64.43;;;30.83;;
17890;SDS011;9071;48.220;14.480;2023-11-19T20:13:54;60.70;;;29.43;;
17890;SDS011;9071;48.220;14.480;2023-11-19T20:18:56;80.63;;;37.87;;
17890;SDS011;9071;48.220;14.480;2023-11-19T20:23:58;73.60;;;34.40;;
17890;SDS011;9071;48.220;14.480;2023-11-19T20:29:04;73.53;;;35.77;;
17890;SDS011;9071;48.220;14.480;2023-11-19T20:34:06;67.93;;;34.03;;
17890;SDS011;9071;48.220;14.480;2023-11-19T20:39:08;64.10;;;32.13;;
17890;SDS011;9071;48.220;14.480;2023-11-19T20:44:14;58.53;;;30.50;;
17890;SDS011;9071;48.220;14.480;2023-11-19T20:49:16;57.07;;;28.67;;
17890;SDS011;9071;48.220;14.480;2023-11-19T20:54:19;60.63;;;31.93;;
17890;SDS011;9071;48.220;14.480;2023-11-19T20:59:22;70.60;;;32.80;;
17890;SDS011;9071;48.220;14.480;2023-11-19T21:04:24;57.47;;;29.97;;
17890;SDS011;9071;48.220;14.480;2023-11-19T21:09:26;56.93;;;29.80;;
17890;SDS011;9071;48.220;14.480;2023-11-19T21:14:30;67.13;;;32.97;;
17890;SDS011;9071;48.220;14.480;2023-11-19T21:19:33;65.27;;;33.50;;
17890;SDS011;9071;48.220;14.480;2023-11-19T21:24:35;66.30;;;33.30;;
17890;SDS011;9071;48.220;14.480;2023-11-19T21:29:39;65.67;;;31.37;;
17890;SDS011;9071;48.220;14.480;2023-11-19T21:34:41;60.20;;;31.63;;
17890;SDS011;9071;48.220;14.480;2023-11-19T21:39:43;63.80;;;32.03;;
17890;SDS011;9071;48.220;14.480;2023-11-19T21:44:46;63.80;;;31.90;;
17890;SDS011;9071;48.220;14.480;2023-11-19T21:49:49;70.43;;;34.93;;
17890;SDS011;9071;48.220;14.480;2023-11-19T21:54:51;69.63;;;34.40;;
17890;SDS011;9071;48.220;14.480;2023-11-19T21:59:55;74.60;;;36.03;;
17890;SDS011;9071;48.220;14.480;2023-11-19T22:04:57;79.53;;;37.97;;
17890;SDS011;9071;48.220;14.480;2023-11-19T22:09:59;76.80;;;35.40;;
17890;SDS011;9071;48.220;14.480;2023-11-19T22:15:05;68.03;;;34.17;;
17890;SDS011;9071;48.220;14.480;2023-11-19T22:20:08;71.43;;;36.80;;
17890;SDS011;9071;48.220;14.480;2023-11-19T22:25:10;65.13;;;36.23;;
17890;SDS011;9071;48.220;14.480;2023-11-19T22:30:14;65.37;;;32.17;;
17890;SDS011;9071;48.220;14.480;2023-11-19T22:35:16;63.17;;;31.10;;
17890;SDS011;9071;48.220;14.480;2023-11-19T22:40:18;57.20;;;29.77;;
17890;SDS011;9071;48.220;14.480;2023-11-19T22:45:21;58.87;;;30.00;;
17890;SDS011;9071;48.220;14.480;2023-11-19T22:50:23;57.50;;;27.77;;
17890;SDS011;9071;48.220;14.480;2023-11-19T22:55:25;63.83;;;31.57;;
17890;SDS011;9071;48.220;14.480;2023-11-19T23:00:29;51.43;;;26.07;;
17890;SDS011;9071;48.220;14.480;2023-11-19T23:05:31;46.10;;;25.83;;
17890;SDS011;9071;48.220;14.480;2023-11-19T23:10:36;32.17;;;17.10;;
17890;SDS011;9071;48.220;14.480;2023-11-19T23:15:39;21.93;;;12.73;;
17890;SDS011;9071;48.220;14.480;2023-11-19T23:20:41;19.07;;;10.40;;
17890;SDS011;9071;48.220;14.480;2023-11-19T23:25:43;13.40;;;5.90;;
17890;SDS011;9071;48.220;14.480;2023-11-19T23:30:47;7.70;;;3.77;;
17890;SDS011;9071;48.220;14.480;2023-11-19T23:35:49;6.63;;;3.50;;
17890;SDS011;9071;48.220;14.480;2023-11-19T23:40:51;5.97;;;2.70;;
17890;SDS011;9071;48.220;14.480;2023-11-19T23:45:55;6.33;;;3.17;;
17890;SDS011;9071;48.220;14.480;2023-11-19T23:50:57;6.43;;;2.70;;
17890;SDS011;9071;48.220;14.480;2023-11-19T23:55:59;6.47;;;2.30;;
